Time;durP1;ratioP1;P1;durP2;ratioP2;P2;SDS_P1;SDS_P2;PMS_P1;PMS_P2;Temp;Humidity;BMP_temperature;BMP_pressure;BME280_temperature;BME280_humidity;BME280_pressure;Samples;Min_cycle;Max_cycle;Signal;HPM_P1;HPM_P2
2023/08/04 00:00:25;;;;;;;0.00;0.00;;;16.70;99.90;;;;;;5041602;28;20067;-71
2023/08/04 00:02:50;;;;;;;0.00;0.00;;;16.80;99.90;;;;;;5037668;28;20047;-70
2023/08/04 00:05:16;;;;;;;0.00;0.00;;;16.80;99.90;;;;;;5037388;28;20125;-70
2023/08/04 00:07:43;;;;;;;0.00;0.00;;;16.70;99.90;;;;;;5041943;28;20373;-70
2023/08/04 00:10:09;;;;;;;0.00;0.00;;;16.70;99.90;;;;;;5040780;28;20045;-70
2023/08/04 00:12:34;;;;;;;0.00;0.00;;;16.70;99.90;;;;;;5045421;28;20041;-71
2023/08/04 00:15:00;;;;;;;0.00;0.00;;;16.70;99.90;;;;;;5036219;28;20091;-70
2023/08/04 00:17:26;;;;;;;0.00;0.00;;;16.80;99.90;;;;;;5037338;28;20044;-71
2023/08/04 00:19:52;;;;;;;0.00;0.00;;;16.80;99.90;;;;;;5025725;28;20049;-70
2023/08/04 00:22:18;;;;;;;0.17;0.17;;;16.70;99.90;;;;;;5041817;28;20411;-69
2023/08/04 00:24:44;;;;;;;0.00;0.00;;;16.70;99.90;;;;;;5029982;28;20103;-70
2023/08/04 00:27:10;;;;;;;0.00;0.00;;;16.70;99.90;;;;;;5040073;28;20456;-70
2023/08/04 00:29:36;;;;;;;0.08;0.08;;;16.60;99.90;;;;;;5033310;28;20080;-69
2023/08/04 00:32:01;;;;;;;0.05;0.05;;;16.60;99.90;;;;;;5033075;28;20050;-70
2023/08/04 00:34:27;;;;;;;0.00;0.00;;;16.60;99.90;;;;;;5040407;28;20047;-71
2023/08/04 00:36:52;;;;;;;0.30;0.30;;;16.60;99.90;;;;;;5048527;28;20048;-70
2023/08/04 00:39:18;;;;;;;0.00;0.00;;;16.60;99.90;;;;;;5041605;28;20091;-70
2023/08/04 00:41:44;;;;;;;0.00;0.00;;;16.60;99.90;;;;;;5026483;28;21004;-70
2023/08/04 00:44:10;;;;;;;0.00;0.00;;;16.50;99.90;;;;;;5044238;28;20052;-70
2023/08/04 00:46:36;;;;;;;0.00;0.00;;;16.50;99.90;;;;;;5044475;28;20396;-70
2023/08/04 00:49:03;;;;;;;0.00;0.00;;;16.50;99.90;;;;;;5038784;28;20157;-70
2023/08/04 00:51:30;;;;;;;0.00;0.00;;;16.50;99.90;;;;;;5037864;28;20297;-70
2023/08/04 00:53:56;;;;;;;0.00;0.00;;;16.50;99.90;;;;;;5036462;28;20076;-70
2023/08/04 00:56:22;;;;;;;1.48;1.00;;;16.50;99.90;;;;;;5043216;28;20045;-70
2023/08/04 00:58:47;;;;;;;0.00;0.00;;;16.50;99.90;;;;;;5025908;28;20048;-70
2023/08/04 01:01:13;;;;;;;0.00;0.00;;;16.50;99.90;;;;;;5024164;28;20071;-70
2023/08/04 01:03:40;;;;;;;0.20;0.20;;;16.40;99.90;;;;;;5020623;28;20400;-70
2023/08/04 01:06:30;;;;;;;0.00;0.00;;;16.40;99.90;;;;;;5040769;28;20044;-70
2023/08/04 01:09:13;;;;;;;0.00;0.00;;;16.40;99.90;;;;;;5039776;28;20044;-70
2023/08/04 01:11:53;;;;;;;0.00;0.00;;;16.40;99.90;;;;;;5038368;28;20040;-70
2023/08/04 01:14:21;;;;;;;0.00;0.00;;;16.30;99.90;;;;;;5041826;28;20132;-70
2023/08/04 01:16:46;;;;;;;0.00;0.00;;;16.30;99.90;;;;;;5037081;28;20044;-70
2023/08/04 01:19:12;;;;;;;0.00;0.00;;;16.40;99.90;;;;;;5026894;28;20057;-70
2023/08/04 01:21:42;;;;;;;0.00;0.00;;;16.30;99.90;;;;;;5042594;28;20120;-70
2023/08/04 01:24:09;;;;;;;0.00;0.00;;;16.30;99.90;;;;;;5033868;28;20087;-70
2023/08/04 01:26:44;;;;;;;0.00;0.00;;;16.30;99.90;;;;;;5041167;28;20060;-70
2023/08/04 01:29:10;;;;;;;0.00;0.00;;;16.30;99.90;;;;;;5041029;28;20118;-70
2023/08/04 01:31:38;;;;;;;0.00;0.00;;;16.30;99.90;;;;;;5030983;28;20041;-70
2023/08/04 01:34:04;;;;;;;0.00;0.00;;;16.30;99.90;;;;;;5025260;28;20057;-70
2023/08/04 01:36:29;;;;;;;0.00;0.00;;;16.30;99.90;;;;;;5043909;28;20056;-70
2023/08/04 01:38:56;;;;;;;0.00;0.00;;;16.20;99.90;;;;;;5047062;28;20469;-70
2023/08/04 01:41:22;;;;;;;0.00;0.00;;;16.30;99.90;;;;;;5036545;28;20488;-69
2023/08/04 01:43:47;;;;;;;0.00;0.00;;;16.30;99.90;;;;;;5033189;28;20063;-69
2023/08/04 01:46:13;;;;;;;0.00;0.00;;;16.30;99.90;;;;;;5040995;28;20051;-69
2023/08/04 01:48:39;;;;;;;0.00;0.00;;;16.20;99.90;;;;;;5039271;28;20041;-69
2023/08/04 01:51:04;;;;;;;0.00;0.00;;;16.20;99.90;;;;;;5042453;28;20052;-69
2023/08/04 01:53:30;;;;;;;0.10;0.10;;;16.20;99.90;;;;;;5044030;28;20085;-69
2023/08/04 01:55:55;;;;;;;0.05;0.05;;;16.10;99.90;;;;;;5036135;28;20443;-69
2023/08/04 01:58:21;;;;;;;0.05;0.05;;;16.20;99.90;;;;;;5018613;28;20045;-69
2023/08/04 02:00:46;;;;;;;0.20;0.20;;;16.20;99.90;;;;;;5044253;28;20491;-69
2023/08/04 02:03:12;;;;;;;0.10;0.10;;;16.20;99.90;;;;;;5040107;28;20029;-69
2023/08/04 02:05:45;;;;;;;0.20;0.20;;;16.20;99.90;;;;;;5043440;28;20212;-69
2023/08/04 02:08:10;;;;;;;0.10;0.10;;;16.20;99.90;;;;;;5027558;28;20464;-69
2023/08/04 02:10:36;;;;;;;0.00;0.00;;;16.30;99.90;;;;;;5047727;28;20051;-69
2023/08/04 02:13:01;;;;;;;0.00;0.00;;;16.30;99.90;;;;;;5042431;28;20769;-69
2023/08/04 02:15:27;;;;;;;0.00;0.00;;;16.30;99.90;;;;;;5043305;28;20146;-69
2023/08/04 02:17:53;;;;;;;0.00;0.00;;;16.30;99.90;;;;;;5048019;28;20044;-70
2023/08/04 02:20:19;;;;;;;0.00;0.00;;;16.30;99.90;;;;;;5043136;28;20068;-69
2023/08/04 02:22:44;;;;;;;0.03;0.03;;;16.30;99.90;;;;;;5038437;28;20562;-70
2023/08/04 02:25:10;;;;;;;0.52;0.52;;;16.30;99.90;;;;;;5029424;28;20126;-70
2023/08/04 02:27:35;;;;;;;0.00;0.00;;;16.30;99.90;;;;;;5034874;28;20049;-70
2023/08/04 02:30:02;;;;;;;0.00;0.00;;;16.30;99.90;;;;;;5040593;28;20060;-69
2023/08/04 02:32:27;;;;;;;0.00;0.00;;;16.30;99.90;;;;;;5037907;28;20064;-70
2023/08/04 02:34:53;;;;;;;0.00;0.00;;;16.40;99.90;;;;;;5044606;28;20033;-70
2023/08/04 02:37:18;;;;;;;0.00;0.00;;;16.30;99.90;;;;;;5035425;28;20481;-70
2023/08/04 02:39:44;;;;;;;0.00;0.00;;;16.40;99.90;;;;;;5048459;28;20048;-70
2023/08/04 02:42:10;;;;;;;0.00;0.00;;;16.40;99.90;;;;;;5036926;28;20120;-70
2023/08/04 02:44:35;;;;;;;0.00;0.00;;;16.40;99.90;;;;;;5041477;28;20037;-69
2023/08/04 02:47:01;;;;;;;0.35;0.20;;;16.40;99.90;;;;;;5041154;28;20130;-70
2023/08/04 02:49:27;;;;;;;0.03;0.03;;;16.40;99.90;;;;;;5042809;28;20048;-69
2023/08/04 02:51:53;;;;;;;0.00;0.00;;;16.40;99.90;;;;;;5046158;28;20136;-69
2023/08/04 02:54:18;;;;;;;0.00;0.00;;;16.40;99.90;;;;;;5043724;28;20128;-69
2023/08/04 02:56:44;;;;;;;0.43;0.43;;;16.40;99.90;;;;;;5045137;28;20041;-69
2023/08/04 02:59:10;;;;;;;1.08;0.93;;;16.40;99.90;;;;;;5034116;28;20044;-69
2023/08/04 03:01:35;;;;;;;0.10;0.10;;;16.40;99.90;;;;;;5046996;28;20049;-68
2023/08/04 03:04:02;;;;;;;0.00;0.00;;;16.40;99.90;;;;;;5049502;28;20041;-69
2023/08/04 03:06:27;;;;;;;0.00;0.00;;;16.40;99.90;;;;;;5050087;28;20399;-69
2023/08/04 03:08:53;;;;;;;0.00;0.00;;;16.40;99.90;;;;;;5030988;28;20091;-69
2023/08/04 03:11:18;;;;;;;0.00;0.00;;;16.30;99.90;;;;;;5039347;28;20049;-69
2023/08/04 03:13:44;;;;;;;0.00;0.00;;;16.30;99.90;;;;;;5049542;28;20440;-68
2023/08/04 03:16:09;;;;;;;0.00;0.00;;;16.30;99.90;;;;;;5043543;28;20076;-68
2023/08/04 03:18:35;;;;;;;0.88;0.85;;;16.30;99.90;;;;;;5043444;28;20471;-69
2023/08/04 03:21:04;;;;;;;0.00;0.00;;;16.20;99.90;;;;;;5035877;28;20049;-68
2023/08/04 03:23:31;;;;;;;0.00;0.00;;;16.20;99.90;;;;;;5043362;28;20039;-69
2023/08/04 03:25:56;;;;;;;0.00;0.00;;;16.20;99.90;;;;;;5044280;28;20036;-68
2023/08/04 03:28:22;;;;;;;2.55;0.20;;;16.20;99.90;;;;;;5045782;28;20488;-69
2023/08/04 03:30:47;;;;;;;0.00;0.00;;;16.10;99.90;;;;;;5035893;28;20041;-69
2023/08/04 03:33:13;;;;;;;0.00;0.00;;;16.10;99.90;;;;;;5043109;28;20111;-68
2023/08/04 03:35:38;;;;;;;0.05;0.05;;;16.10;99.90;;;;;;5024575;28;20052;-69
2023/08/04 03:38:04;;;;;;;0.00;0.00;;;16.00;99.90;;;;;;5039864;28;20137;-68
2023/08/04 03:40:30;;;;;;;0.00;0.00;;;16.00;99.90;;;;;;5031050;28;20124;-69
2023/08/04 03:42:55;;;;;;;0.75;0.22;;;16.00;99.90;;;;;;5040740;28;20079;-69
2023/08/04 03:45:21;;;;;;;0.00;0.00;;;16.00;99.90;;;;;;5040395;28;20033;-69
2023/08/04 03:47:47;;;;;;;11.60;0.63;;;16.00;99.90;;;;;;5040537;28;20617;-69
2023/08/04 03:50:12;;;;;;;0.00;0.00;;;16.00;99.90;;;;;;5050351;28;20469;-69
2023/08/04 03:52:38;;;;;;;0.00;0.00;;;16.10;99.90;;;;;;5044691;28;20072;-69
2023/08/04 03:55:08;;;;;;;0.00;0.00;;;16.00;99.90;;;;;;5041274;28;20488;-69
2023/08/04 03:57:33;;;;;;;0.00;0.00;;;16.10;99.90;;;;;;5027273;28;20053;-69
2023/08/04 04:00:00;;;;;;;0.00;0.00;;;16.10;99.90;;;;;;5042296;28;20473;-69
2023/08/04 04:02:26;;;;;;;0.00;0.00;;;16.10;99.90;;;;;;5027678;28;20160;-69
2023/08/04 04:04:52;;;;;;;0.60;0.47;;;16.20;99.90;;;;;;5023083;28;20041;-69
2023/08/04 04:07:17;;;;;;;0.00;0.00;;;16.20;99.90;;;;;;5042242;28;20125;-69
2023/08/04 04:09:43;;;;;;;0.00;0.00;;;16.10;99.90;;;;;;5022961;28;20052;-69
2023/08/04 04:12:08;;;;;;;0.00;0.00;;;16.20;99.90;;;;;;5045337;28;20046;-69
2023/08/04 04:14:34;;;;;;;0.00;0.00;;;16.20;99.90;;;;;;5045345;28;20041;-69
2023/08/04 04:17:02;;;;;;;0.00;0.00;;;16.20;99.90;;;;;;5035763;28;20401;-69
2023/08/04 04:19:27;;;;;;;3.40;0.65;;;16.20;99.90;;;;;;5044025;28;20037;-69
2023/08/04 04:21:53;;;;;;;0.00;0.00;;;16.20;99.90;;;;;;5034035;28;20041;-69
2023/08/04 04:24:19;;;;;;;0.00;0.00;;;16.20;99.90;;;;;;5042875;28;20041;-69
2023/08/04 04:26:44;;;;;;;0.45;0.45;;;16.20;99.90;;;;;;5036224;28;20171;-69
2023/08/04 04:29:10;;;;;;;0.03;0.03;;;16.20;99.90;;;;;;5044123;28;20076;-69
2023/08/04 04:31:36;;;;;;;0.00;0.00;;;16.20;99.90;;;;;;5032795;28;20389;-69
2023/08/04 04:34:02;;;;;;;0.00;0.00;;;16.10;99.90;;;;;;5039589;28;20044;-69
2023/08/04 04:36:28;;;;;;;0.00;0.00;;;16.20;99.90;;;;;;5045614;28;20033;-68
2023/08/04 04:38:53;;;;;;;0.00;0.00;;;16.10;99.90;;;;;;5038584;28;20052;-69
2023/08/04 04:41:19;;;;;;;0.00;0.00;;;16.10;99.90;;;;;;5042983;28;20037;-69
2023/08/04 04:43:44;;;;;;;0.35;0.20;;;16.20;99.90;;;;;;5034059;28;20087;-69
2023/08/04 04:46:10;;;;;;;0.10;0.10;;;16.20;99.90;;;;;;5042442;28;20392;-69
2023/08/04 04:48:36;;;;;;;0.00;0.00;;;16.10;99.90;;;;;;5044616;28;20048;-69
2023/08/04 04:51:01;;;;;;;0.00;0.00;;;16.10;99.90;;;;;;5037274;28;20064;-70
2023/08/04 04:53:27;;;;;;;0.00;0.00;;;16.10;99.90;;;;;;5032334;28;20080;-69
2023/08/04 04:55:52;;;;;;;0.00;0.00;;;16.00;99.90;;;;;;5038669;28;20080;-69
2023/08/04 04:58:18;;;;;;;0.00;0.00;;;16.00;99.90;;;;;;5047115;28;20091;-69
2023/08/04 05:00:45;;;;;;;0.00;0.00;;;16.00;99.90;;;;;;5037318;28;20903;-69
2023/08/04 05:03:10;;;;;;;0.00;0.00;;;16.00;99.90;;;;;;5032773;28;20041;-70
2023/08/04 05:05:37;;;;;;;0.00;0.00;;;16.00;99.90;;;;;;5046012;28;20489;-69
2023/08/04 05:08:02;;;;;;;0.30;0.30;;;16.00;99.90;;;;;;5046391;28;20063;-70
2023/08/04 05:10:28;;;;;;;0.00;0.00;;;16.10;99.90;;;;;;5031759;28;20401;-70
2023/08/04 05:12:54;;;;;;;0.00;0.00;;;16.10;99.90;;;;;;5042941;28;20488;-69
2023/08/04 05:15:19;;;;;;;0.00;0.00;;;16.20;99.90;;;;;;5043452;28;20033;-69
2023/08/04 05:17:45;;;;;;;0.10;0.10;;;16.20;99.90;;;;;;5036827;28;20469;-69
2023/08/04 05:20:14;;;;;;;2.63;0.90;;;16.20;99.90;;;;;;5035570;28;20041;-69
2023/08/04 05:22:41;;;;;;;0.00;0.00;;;16.30;99.90;;;;;;5036244;28;20099;-69
2023/08/04 05:25:07;;;;;;;0.00;0.00;;;16.30;99.90;;;;;;5040611;28;20045;-69
2023/08/04 05:27:33;;;;;;;0.00;0.00;;;16.40;99.90;;;;;;5028358;28;20053;-69
2023/08/04 05:30:00;;;;;;;0.75;0.63;;;16.40;99.90;;;;;;5036973;28;20127;-70
2023/08/04 05:32:26;;;;;;;0.00;0.00;;;16.50;99.90;;;;;;5044840;28;20041;-69
2023/08/04 05:34:51;;;;;;;0.00;0.00;;;16.50;99.90;;;;;;5039881;28;20037;-69
2023/08/04 05:37:17;;;;;;;0.00;0.00;;;16.50;99.90;;;;;;5023237;28;20124;-69
2023/08/04 05:39:43;;;;;;;0.00;0.00;;;16.60;99.90;;;;;;5035475;28;20049;-70
2023/08/04 05:42:08;;;;;;;0.00;0.00;;;16.60;99.90;;;;;;5028962;28;20045;-70
2023/08/04 05:44:34;;;;;;;0.52;0.25;;;16.60;99.90;;;;;;5020017;28;20542;-70
2023/08/04 05:46:59;;;;;;;0.40;0.20;;;16.70;99.90;;;;;;5044973;28;20071;-70
2023/08/04 05:49:25;;;;;;;0.00;0.00;;;16.80;99.90;;;;;;5020688;28;20045;-70
2023/08/04 05:51:51;;;;;;;0.10;0.10;;;16.80;99.90;;;;;;5049674;28;20056;-70
2023/08/04 05:54:17;;;;;;;0.15;0.15;;;16.80;99.90;;;;;;5048187;28;20389;-70
2023/08/04 05:56:42;;;;;;;0.00;0.00;;;16.80;99.90;;;;;;5041222;28;20049;-70
2023/08/04 05:59:08;;;;;;;0.08;0.08;;;16.90;99.90;;;;;;5045541;28;20044;-70
2023/08/04 06:01:34;;;;;;;0.13;0.13;;;17.00;99.90;;;;;;5045692;28;20603;-70
2023/08/04 06:03:59;;;;;;;0.00;0.00;;;17.00;99.90;;;;;;5045824;28;20049;-70
2023/08/04 06:06:26;;;;;;;0.00;0.00;;;17.10;99.90;;;;;;5024660;28;20041;-70
2023/08/04 06:08:52;;;;;;;0.00;0.00;;;17.10;99.90;;;;;;5050096;28;20047;-70
2023/08/04 06:11:17;;;;;;;0.00;0.00;;;17.00;99.90;;;;;;5041046;28;20037;-70
2023/08/04 06:13:43;;;;;;;0.00;0.00;;;17.00;99.90;;;;;;5039348;28;20072;-70
2023/08/04 06:16:09;;;;;;;0.00;0.00;;;17.00;99.90;;;;;;5046195;28;20076;-69
2023/08/04 06:18:34;;;;;;;0.00;0.00;;;17.00;99.90;;;;;;5044881;28;20477;-69
2023/08/04 06:21:00;;;;;;;0.00;0.00;;;16.90;99.90;;;;;;5040928;28;20099;-70
2023/08/04 06:23:25;;;;;;;0.00;0.00;;;16.90;99.90;;;;;;5041968;28;20040;-70
2023/08/04 06:25:51;;;;;;;0.00;0.00;;;16.90;99.90;;;;;;5048207;28;20103;-70
2023/08/04 06:28:16;;;;;;;0.03;0.03;;;17.00;99.90;;;;;;5039430;28;20033;-69
2023/08/04 06:30:42;;;;;;;0.00;0.00;;;17.00;99.90;;;;;;5018247;28;20076;-69
2023/08/04 06:33:08;;;;;;;0.00;0.00;;;17.00;99.90;;;;;;5048423;28;20675;-70
2023/08/04 06:35:34;;;;;;;0.00;0.00;;;17.00;99.90;;;;;;5045644;28;20041;-70
2023/08/04 06:37:59;;;;;;;1.48;1.38;;;17.00;99.90;;;;;;5045803;28;20064;-70
2023/08/04 06:40:25;;;;;;;0.00;0.00;;;17.10;99.90;;;;;;5047392;28;20125;-70
2023/08/04 06:42:53;;;;;;;0.00;0.00;;;17.20;99.90;;;;;;5039346;28;20051;-70
2023/08/04 06:45:18;;;;;;;0.00;0.00;;;17.10;99.90;;;;;;5042026;28;20037;-70
2023/08/04 06:47:44;;;;;;;0.00;0.00;;;17.10;99.90;;;;;;5046639;28;20888;-70
2023/08/04 06:50:10;;;;;;;0.00;0.00;;;17.10;99.90;;;;;;5041047;28;20125;-69
2023/08/04 06:52:35;;;;;;;0.00;0.00;;;17.10;99.90;;;;;;5026485;28;20053;-70
2023/08/04 06:55:01;;;;;;;0.00;0.00;;;17.00;99.90;;;;;;5046653;28;20725;-70
2023/08/04 06:57:27;;;;;;;0.00;0.00;;;17.00;99.90;;;;;;5041945;28;20038;-70
2023/08/04 06:59:52;;;;;;;0.00;0.00;;;17.00;99.90;;;;;;5039037;28;20503;-70
2023/08/04 07:02:18;;;;;;;0.00;0.00;;;17.00;99.90;;;;;;5021917;28;21409;-70
2023/08/04 07:04:43;;;;;;;0.55;0.30;;;17.00;99.90;;;;;;5025422;28;20037;-69
2023/08/04 07:07:09;;;;;;;0.30;0.30;;;17.00;99.90;;;;;;5024796;28;20076;-70
2023/08/04 07:09:35;;;;;;;0.00;0.00;;;17.10;99.90;;;;;;5044718;28;20113;-70
2023/08/04 07:12:00;;;;;;;0.00;0.00;;;17.10;99.90;;;;;;5035051;28;20428;-70
2023/08/04 07:14:26;;;;;;;0.08;0.08;;;17.10;99.90;;;;;;5046687;28;20044;-70
2023/08/04 07:16:51;;;;;;;0.00;0.00;;;17.20;99.90;;;;;;5048384;28;20068;-70
2023/08/04 07:19:17;;;;;;;9.57;2.90;;;17.20;99.90;;;;;;5039585;28;20038;-69
2023/08/04 07:21:44;;;;;;;0.00;0.00;;;17.30;99.90;;;;;;5046794;28;20043;-70
2023/08/04 07:24:10;;;;;;;0.00;0.00;;;17.30;99.90;;;;;;5037308;28;20041;-70
2023/08/04 07:26:36;;;;;;;0.00;0.00;;;17.40;99.90;;;;;;5045585;28;20041;-70
2023/08/04 07:29:02;;;;;;;0.00;0.00;;;17.40;99.90;;;;;;5047550;28;20094;-70
2023/08/04 07:31:27;;;;;;;0.17;0.17;;;17.40;99.90;;;;;;5033099;28;21476;-69
2023/08/04 07:33:53;;;;;;;0.00;0.00;;;17.60;99.90;;;;;;5041343;28;20045;-70
2023/08/04 07:36:18;;;;;;;0.00;0.00;;;17.60;99.90;;;;;;5044570;28;20059;-70
2023/08/04 07:38:44;;;;;;;0.20;0.20;;;17.60;99.90;;;;;;5022221;28;20050;-69
2023/08/04 07:41:20;;;;;;;0.03;0.03;;;17.70;99.90;;;;;;5043963;28;20076;-69
2023/08/04 07:43:46;;;;;;;0.00;0.00;;;17.70;99.90;;;;;;5027643;28;20053;-69
2023/08/04 07:46:25;;;;;;;0.00;0.00;;;17.70;99.90;;;;;;5028245;28;20642;-69
2023/08/04 07:48:52;;;;;;;0.03;0.03;;;17.80;99.90;;;;;;5027683;28;20484;-70
2023/08/04 07:51:18;;;;;;;0.15;0.15;;;17.80;99.90;;;;;;4995927;28;1079177;-69
2023/08/04 07:53:44;;;;;;;0.00;0.00;;;17.80;99.90;;;;;;5036035;28;20071;-69
2023/08/04 07:56:10;;;;;;;0.00;0.00;;;17.80;99.90;;;;;;5043767;28;20037;-69
2023/08/04 07:58:35;;;;;;;0.00;0.00;;;17.80;99.90;;;;;;5042094;28;20049;-69
2023/08/04 08:01:03;;;;;;;0.00;0.00;;;17.80;99.90;;;;;;5038388;28;20105;-70
2023/08/04 08:03:30;;;;;;;0.00;0.00;;;17.70;99.90;;;;;;5043042;28;20033;-69
2023/08/04 08:05:56;;;;;;;0.20;0.10;;;17.80;99.90;;;;;;5046512;28;20369;-70
2023/08/04 08:08:22;;;;;;;0.00;0.00;;;17.90;99.90;;;;;;5039220;28;20039;-69
2023/08/04 08:10:47;;;;;;;0.00;0.00;;;17.90;99.90;;;;;;5043668;28;20084;-70
2023/08/04 08:13:13;;;;;;;0.00;0.00;;;17.90;99.90;;;;;;5049271;28;20391;-70
2023/08/04 08:15:39;;;;;;;0.10;0.10;;;17.90;99.90;;;;;;5043172;28;20033;-71
2023/08/04 08:18:04;;;;;;;8.68;0.80;;;18.00;99.90;;;;;;5023232;28;20049;-70
2023/08/04 08:20:30;;;;;;;0.00;0.00;;;18.10;99.90;;;;;;5046824;28;20045;-70
2023/08/04 08:22:56;;;;;;;0.00;0.00;;;18.10;99.90;;;;;;5037026;28;20100;-71
2023/08/04 08:25:22;;;;;;;0.00;0.00;;;18.10;99.90;;;;;;5040091;28;20054;-71
2023/08/04 08:27:48;;;;;;;0.00;0.00;;;18.00;99.90;;;;;;5047358;28;20112;-71
2023/08/04 08:30:13;;;;;;;3.03;0.35;;;18.00;99.90;;;;;;5040133;28;20057;-70
2023/08/04 08:32:39;;;;;;;0.43;0.22;;;18.10;99.90;;;;;;5024235;28;20487;-70
2023/08/04 08:35:05;;;;;;;2.47;0.73;;;18.10;99.90;;;;;;5047857;28;20041;-71
2023/08/04 08:37:31;;;;;;;0.00;0.00;;;18.20;99.90;;;;;;5043315;28;20562;-71
2023/08/04 08:39:56;;;;;;;0.08;0.08;;;18.20;99.90;;;;;;5043308;28;20100;-70
2023/08/04 08:42:22;;;;;;;0.00;0.00;;;18.30;99.90;;;;;;5040459;28;20067;-70
2023/08/04 08:44:49;;;;;;;0.00;0.00;;;18.40;99.90;;;;;;5038267;28;20041;-70
2023/08/04 08:47:15;;;;;;;0.00;0.00;;;18.40;99.90;;;;;;5024998;28;20041;-70
2023/08/04 08:49:46;;;;;;;0.00;0.00;;;18.40;99.90;;;;;;5040297;28;20037;-70
2023/08/04 08:52:11;;;;;;;0.10;0.10;;;18.40;99.90;;;;;;5023896;28;20100;-70
2023/08/04 08:54:38;;;;;;;2.63;0.52;;;18.50;99.90;;;;;;5042856;28;20044;-70
2023/08/04 08:57:05;;;;;;;0.00;0.00;;;18.60;99.90;;;;;;5046244;28;20046;-70
2023/08/04 08:59:32;;;;;;;0.00;0.00;;;18.50;99.90;;;;;;5042976;28;20428;-70
2023/08/04 09:01:58;;;;;;;0.00;0.00;;;18.60;99.90;;;;;;5035650;28;20451;-70
2023/08/04 09:04:25;;;;;;;0.00;0.00;;;18.60;99.90;;;;;;5039156;28;20072;-70
2023/08/04 09:06:51;;;;;;;1.30;0.70;;;18.60;99.90;;;;;;5020002;28;20053;-71
2023/08/04 09:09:16;;;;;;;0.45;0.25;;;18.70;99.90;;;;;;5041934;28;20875;-71
2023/08/04 09:11:42;;;;;;;0.17;0.15;;;18.70;99.90;;;;;;5047822;28;20041;-71
2023/08/04 09:14:08;;;;;;;0.00;0.00;;;18.70;99.90;;;;;;5027088;28;20132;-70
2023/08/04 09:16:36;;;;;;;0.25;0.25;;;18.70;99.90;;;;;;5021232;28;20049;-71
2023/08/04 09:19:04;;;;;;;0.03;0.03;;;18.60;99.90;;;;;;5019521;28;20048;-71
2023/08/04 09:21:30;;;;;;;18.77;1.00;;;18.50;99.90;;;;;;5039802;28;20123;-71
2023/08/04 09:23:56;;;;;;;0.00;0.00;;;18.40;99.90;;;;;;5035854;28;20136;-70
2023/08/04 09:26:22;;;;;;;0.00;0.00;;;18.30;99.90;;;;;;5028794;28;20060;-71
2023/08/04 09:29:04;;;;;;;0.00;0.00;;;18.40;99.90;;;;;;5048479;28;20484;-70
2023/08/04 09:31:41;;;;;;;0.93;0.93;;;18.40;99.90;;;;;;5032728;28;20045;-70
2023/08/04 09:34:08;;;;;;;0.00;0.00;;;18.60;99.90;;;;;;5038453;28;20121;-71
2023/08/04 09:36:48;;;;;;;0.10;0.10;;;18.80;99.90;;;;;;5036216;28;20041;-70
2023/08/04 09:39:14;;;;;;;0.00;0.00;;;19.20;99.90;;;;;;5046958;28;20037;-71
2023/08/04 09:41:45;;;;;;;0.00;0.00;;;19.10;99.90;;;;;;5025447;28;20055;-71
2023/08/04 09:44:11;;;;;;;0.00;0.00;;;19.00;99.90;;;;;;5036174;28;20084;-70
2023/08/04 09:46:51;;;;;;;0.00;0.00;;;18.80;99.90;;;;;;5028294;28;20055;-70
2023/08/04 09:49:17;;;;;;;0.00;0.00;;;18.80;99.90;;;;;;5039372;28;20049;-70
2023/08/04 09:51:43;;;;;;;1.55;1.45;;;18.90;99.90;;;;;;5025991;28;20057;-70
2023/08/04 09:54:09;;;;;;;0.00;0.00;;;19.30;99.90;;;;;;5038070;28;20049;-69
2023/08/04 09:56:35;;;;;;;0.00;0.00;;;19.90;99.90;;;;;;5026665;28;20057;-70
2023/08/04 09:59:02;;;;;;;0.00;0.00;;;20.60;99.90;;;;;;5040276;28;20147;-70
2023/08/04 10:01:29;;;;;;;1.40;0.15;;;21.10;99.90;;;;;;5022590;28;20048;-70
2023/08/04 10:03:57;;;;;;;0.57;0.25;;;21.50;99.90;;;;;;5045753;28;20484;-70
2023/08/04 10:06:24;;;;;;;5.63;2.35;;;21.80;99.90;;;;;;5024111;28;20051;-70
2023/08/04 10:08:53;;;;;;;0.00;0.00;;;21.70;99.90;;;;;;5014806;28;20115;-71
2023/08/04 10:11:22;;;;;;;0.00;0.00;;;21.10;99.90;;;;;;5021977;28;20900;-71
2023/08/04 10:13:51;;;;;;;0.08;0.08;;;21.10;99.90;;;;;;5045550;28;20124;-72
2023/08/04 10:16:19;;;;;;;0.20;0.20;;;21.40;99.90;;;;;;5028075;28;20065;-70
2023/08/04 10:18:52;;;;;;;0.00;0.00;;;21.80;99.90;;;;;;5047078;28;20037;-71
2023/08/04 10:21:26;;;;;;;0.00;0.00;;;22.00;99.90;;;;;;5043754;28;20038;-71
2023/08/04 10:23:55;;;;;;;0.00;0.00;;;21.80;99.90;;;;;;5043112;28;20115;-71
2023/08/04 10:26:21;;;;;;;0.00;0.00;;;21.90;99.90;;;;;;5046199;28;20041;-71
2023/08/04 10:29:05;;;;;;;0.00;0.00;;;21.50;99.90;;;;;;5043131;28;20469;-71
2023/08/04 10:31:53;;;;;;;0.00;0.00;;;21.30;99.90;;;;;;5034641;28;20055;-71
2023/08/04 10:34:29;;;;;;;0.63;0.63;;;21.30;99.90;;;;;;5029772;28;20056;-71
2023/08/04 10:37:09;;;;;;;0.00;0.00;;;21.00;99.90;;;;;;5025156;28;20086;-71
2023/08/04 10:39:36;;;;;;;0.00;0.00;;;21.10;99.90;;;;;;5027646;28;20050;-71
2023/08/04 10:42:06;;;;;;;0.00;0.00;;;21.40;99.90;;;;;;5046349;28;20131;-71
2023/08/04 10:44:54;;;;;;;0.00;0.00;;;21.70;99.90;;;;;;5029533;28;20119;-71
2023/08/04 10:47:43;;;;;;;0.00;0.00;;;21.90;99.90;;;;;;5030945;28;20045;-71
2023/08/04 10:50:09;;;;;;;0.00;0.00;;;22.10;99.90;;;;;;5044462;28;20101;-71
2023/08/04 10:52:36;;;;;;;0.00;0.00;;;22.10;99.90;;;;;;5040654;28;20083;-71
2023/08/04 10:55:06;;;;;;;0.08;0.08;;;22.40;99.90;;;;;;5044391;28;20044;-71
2023/08/04 10:57:33;;;;;;;0.35;0.35;;;22.30;99.90;;;;;;5050790;28;20055;-71
2023/08/04 10:59:59;;;;;;;0.00;0.00;;;22.20;99.90;;;;;;5039693;28;20030;-70
2023/08/04 11:02:26;;;;;;;0.17;0.17;;;22.40;99.90;;;;;;5034859;28;20052;-71
2023/08/04 11:04:53;;;;;;;0.38;0.22;;;22.10;99.90;;;;;;5043457;28;20052;-70
2023/08/04 11:07:20;;;;;;;0.47;0.38;;;21.80;99.90;;;;;;5037027;28;20053;-70
2023/08/04 11:09:47;;;;;;;0.00;0.00;;;21.40;99.90;;;;;;5041830;28;20515;-70
2023/08/04 11:12:14;;;;;;;0.80;0.35;;;21.40;99.90;;;;;;5018627;28;20501;-70
2023/08/04 11:14:41;;;;;;;0.00;0.00;;;21.50;99.90;;;;;;5037950;28;20064;-71
2023/08/04 11:17:20;;;;;;;0.00;0.00;;;22.00;99.90;;;;;;5042568;28;20370;-70
2023/08/04 11:19:48;;;;;;;0.25;0.25;;;22.30;99.90;;;;;;5035304;28;20524;-71
2023/08/04 11:22:24;;;;;;;0.00;0.00;;;22.30;99.90;;;;;;5041286;28;20126;-70
2023/08/04 11:24:52;;;;;;;0.10;0.10;;;22.20;99.90;;;;;;5044702;28;20492;-71
2023/08/04 11:27:18;;;;;;;1.30;0.43;;;21.80;99.90;;;;;;5040315;28;20049;-70
2023/08/04 11:29:44;;;;;;;0.10;0.10;;;21.60;99.90;;;;;;5031943;28;20489;-71
2023/08/04 11:32:21;;;;;;;10.88;0.32;;;21.50;99.90;;;;;;5042496;28;20060;-71
2023/08/04 11:34:48;;;;;;;0.00;0.00;;;21.50;99.90;;;;;;5019319;28;20049;-70
2023/08/04 11:37:15;;;;;;;0.00;0.00;;;21.50;99.90;;;;;;5038035;28;20029;-71
2023/08/04 11:39:42;;;;;;;0.00;0.00;;;21.40;99.90;;;;;;5044154;28;20140;-69
2023/08/04 11:42:14;;;;;;;0.10;0.10;;;21.50;99.90;;;;;;5026771;28;20489;-69
2023/08/04 11:44:44;;;;;;;0.15;0.15;;;21.40;99.90;;;;;;5041282;28;20065;-69
2023/08/04 11:47:11;;;;;;;0.00;0.00;;;21.30;99.90;;;;;;5027994;28;20106;-69
2023/08/04 11:49:39;;;;;;;0.00;0.00;;;21.30;99.90;;;;;;5036427;28;20041;-69
2023/08/04 11:52:13;;;;;;;0.00;0.00;;;21.10;99.90;;;;;;5026661;28;20099;-69
2023/08/04 11:54:58;;;;;;;0.20;0.10;;;21.20;99.90;;;;;;5037165;28;20037;-69
2023/08/04 11:57:26;;;;;;;0.00;0.00;;;21.30;99.90;;;;;;5024998;28;20507;-69
2023/08/04 11:59:52;;;;;;;0.00;0.00;;;21.10;99.90;;;;;;5045563;28;20468;-69
2023/08/04 12:02:18;;;;;;;1.75;1.20;;;21.40;99.90;;;;;;5049686;28;20041;-69
2023/08/04 12:04:44;;;;;;;0.05;0.05;;;21.60;99.90;;;;;;5045702;28;20484;-69
2023/08/04 12:07:10;;;;;;;0.20;0.20;;;21.70;99.90;;;;;;5038745;28;20463;-69
2023/08/04 12:09:36;;;;;;;0.00;0.00;;;21.60;99.90;;;;;;5039826;28;20535;-69
2023/08/04 12:12:03;;;;;;;0.25;0.25;;;21.60;99.90;;;;;;5039009;28;20132;-69
2023/08/04 12:14:29;;;;;;;0.00;0.00;;;21.60;99.90;;;;;;5024637;28;20048;-69
2023/08/04 12:17:02;;;;;;;0.00;0.00;;;22.10;99.90;;;;;;5036228;28;20386;-69
2023/08/04 12:19:30;;;;;;;0.00;0.00;;;22.00;99.90;;;;;;5014397;28;20136;-69
2023/08/04 12:22:00;;;;;;;0.00;0.00;;;21.70;99.90;;;;;;5049931;28;20083;-69
2023/08/04 12:24:27;;;;;;;0.00;0.00;;;21.40;99.90;;;;;;5046854;28;20037;-69
2023/08/04 12:26:53;;;;;;;0.00;0.00;;;21.20;99.90;;;;;;5026683;28;20033;-69
2023/08/04 12:29:20;;;;;;;0.08;0.08;;;21.00;99.90;;;;;;5042869;28;20076;-69
2023/08/04 12:31:45;;;;;;;0.10;0.10;;;20.70;99.90;;;;;;5034483;28;20082;-69
2023/08/04 12:34:11;;;;;;;0.00;0.00;;;20.70;99.90;;;;;;5041441;28;20498;-69
2023/08/04 12:36:40;;;;;;;0.10;0.10;;;20.80;99.90;;;;;;5039889;28;20041;-69
2023/08/04 12:39:08;;;;;;;1.10;0.57;;;21.00;99.90;;;;;;5045813;28;20091;-69
2023/08/04 12:41:34;;;;;;;0.00;0.00;;;21.00;99.90;;;;;;5037184;28;20706;-69
2023/08/04 12:44:00;;;;;;;0.08;0.08;;;21.00;99.90;;;;;;5049425;28;20041;-69